sensor_id;sensor_type;location;lat;lon;timestamp;P1;durP1;ratioP1;P2;durP2;ratioP2
21507;SDS011;10915;54.352;9.074;2023-01-26T00:01:06;66.40;;;29.50;;
21507;SDS011;10915;54.352;9.074;2023-01-26T00:03:39;67.63;;;30.23;;
21507;SDS011;10915;54.352;9.074;2023-01-26T00:06:06;62.40;;;29.33;;
21507;SDS011;10915;54.352;9.074;2023-01-26T00:08:40;68.63;;;29.90;;
21507;SDS011;10915;54.352;9.074;2023-01-26T00:11:08;67.17;;;30.47;;
21507;SDS011;10915;54.352;9.074;2023-01-26T00:13:36;68.53;;;30.53;;
21507;SDS011;10915;54.352;9.074;2023-01-26T00:16:04;71.20;;;29.97;;
21507;SDS011;10915;54.352;9.074;2023-01-26T00:18:36;69.10;;;31.40;;
21507;SDS011;10915;54.352;9.074;2023-01-26T00:21:05;65.53;;;30.70;;
21507;SDS011;10915;54.352;9.074;2023-01-26T00:23:33;70.43;;;31.17;;
21507;SDS011;10915;54.352;9.074;2023-01-26T00:25:59;70.00;;;31.57;;
21507;SDS011;10915;54.352;9.074;2023-01-26T00:28:28;76.57;;;32.67;;
21507;SDS011;10915;54.352;9.074;2023-01-26T00:31:04;77.43;;;33.10;;
21507;SDS011;10915;54.352;9.074;2023-01-26T00:33:35;72.40;;;31.77;;
21507;SDS011;10915;54.352;9.074;2023-01-26T00:36:00;70.90;;;31.17;;
21507;SDS011;10915;54.352;9.074;2023-01-26T00:38:26;70.17;;;30.67;;
21507;SDS011;10915;54.352;9.074;2023-01-26T00:40:52;81.33;;;32.50;;
21507;SDS011;10915;54.352;9.074;2023-01-26T00:43:18;71.13;;;30.33;;
21507;SDS011;10915;54.352;9.074;2023-01-26T00:45:43;79.20;;;32.47;;
21507;SDS011;10915;54.352;9.074;2023-01-26T00:48:09;73.17;;;30.67;;
21507;SDS011;10915;54.352;9.074;2023-01-26T00:50:35;73.83;;;31.30;;
21507;SDS011;10915;54.352;9.074;2023-01-26T00:53:00;77.63;;;32.27;;
21507;SDS011;10915;54.352;9.074;2023-01-26T00:55:26;63.57;;;29.30;;
21507;SDS011;10915;54.352;9.074;2023-01-26T00:58:05;70.40;;;30.57;;
21507;SDS011;10915;54.352;9.074;2023-01-26T01:00:33;66.67;;;29.23;;
21507;SDS011;10915;54.352;9.074;2023-01-26T01:03:00;72.20;;;31.10;;
21507;SDS011;10915;54.352;9.074;2023-01-26T01:05:27;66.00;;;27.73;;
21507;SDS011;10915;54.352;9.074;2023-01-26T01:07:54;67.67;;;30.10;;
21507;SDS011;10915;54.352;9.074;2023-01-26T01:10:20;65.67;;;28.87;;
21507;SDS011;10915;54.352;9.074;2023-01-26T01:12:49;67.07;;;30.30;;
21507;SDS011;10915;54.352;9.074;2023-01-26T01:15:15;69.03;;;28.80;;
21507;SDS011;10915;54.352;9.074;2023-01-26T01:17:40;62.43;;;28.77;;
21507;SDS011;10915;54.352;9.074;2023-01-26T01:20:07;68.40;;;29.53;;
21507;SDS011;10915;54.352;9.074;2023-01-26T01:22:35;65.73;;;28.80;;
21507;SDS011;10915;54.352;9.074;2023-01-26T01:25:01;69.53;;;28.90;;
21507;SDS011;10915;54.352;9.074;2023-01-26T01:27:27;64.17;;;29.57;;
21507;SDS011;10915;54.352;9.074;2023-01-26T01:29:53;62.27;;;29.23;;
21507;SDS011;10915;54.352;9.074;2023-01-26T01:32:19;59.87;;;27.27;;
21507;SDS011;10915;54.352;9.074;2023-01-26T01:34:48;73.27;;;30.93;;
21507;SDS011;10915;54.352;9.074;2023-01-26T01:37:14;58.93;;;28.30;;
21507;SDS011;10915;54.352;9.074;2023-01-26T01:39:41;68.73;;;29.77;;
21507;SDS011;10915;54.352;9.074;2023-01-26T01:42:06;66.23;;;29.90;;
21507;SDS011;10915;54.352;9.074;2023-01-26T01:44:36;67.70;;;29.40;;
21507;SDS011;10915;54.352;9.074;2023-01-26T01:47:04;74.80;;;31.50;;
21507;SDS011;10915;54.352;9.074;2023-01-26T01:52:19;71.93;;;30.00;;
21507;SDS011;10915;54.352;9.074;2023-01-26T01:55:02;73.30;;;30.93;;
21507;SDS011;10915;54.352;9.074;2023-01-26T01:57:46;73.37;;;30.73;;
21507;SDS011;10915;54.352;9.074;2023-01-26T02:00:17;71.27;;;30.70;;
21507;SDS011;10915;54.352;9.074;2023-01-26T02:02:47;80.23;;;31.37;;
21507;SDS011;10915;54.352;9.074;2023-01-26T02:08:45;73.10;;;30.93;;
21507;SDS011;10915;54.352;9.074;2023-01-26T02:11:24;71.77;;;29.73;;
21507;SDS011;10915;54.352;9.074;2023-01-26T02:13:57;69.43;;;29.67;;
21507;SDS011;10915;54.352;9.074;2023-01-26T02:16:24;73.73;;;30.37;;
21507;SDS011;10915;54.352;9.074;2023-01-26T02:18:50;74.10;;;31.90;;
21507;SDS011;10915;54.352;9.074;2023-01-26T02:21:17;77.20;;;32.30;;
21507;SDS011;10915;54.352;9.074;2023-01-26T02:26:33;78.20;;;31.60;;
21507;SDS011;10915;54.352;9.074;2023-01-26T02:29:00;67.27;;;29.47;;
21507;SDS011;10915;54.352;9.074;2023-01-26T02:31:26;71.90;;;31.87;;
21507;SDS011;10915;54.352;9.074;2023-01-26T02:33:52;74.20;;;31.17;;
21507;SDS011;10915;54.352;9.074;2023-01-26T02:36:22;73.93;;;31.73;;
21507;SDS011;10915;54.352;9.074;2023-01-26T02:41:27;87.60;;;32.43;;
21507;SDS011;10915;54.352;9.074;2023-01-26T02:44:12;114.13;;;36.27;;
21507;SDS011;10915;54.352;9.074;2023-01-26T02:46:38;111.10;;;36.23;;
21507;SDS011;10915;54.352;9.074;2023-01-26T02:49:04;87.27;;;35.10;;
21507;SDS011;10915;54.352;9.074;2023-01-26T02:51:48;89.80;;;35.97;;
21507;SDS011;10915;54.352;9.074;2023-01-26T02:54:14;79.10;;;29.33;;
21507;SDS011;10915;54.352;9.074;2023-01-26T02:56:59;73.43;;;31.40;;
21507;SDS011;10915;54.352;9.074;2023-01-26T02:59:25;69.13;;;29.80;;
21507;SDS011;10915;54.352;9.074;2023-01-26T03:01:51;74.77;;;31.67;;
21507;SDS011;10915;54.352;9.074;2023-01-26T03:04:17;73.13;;;32.27;;
21507;SDS011;10915;54.352;9.074;2023-01-26T03:06:43;92.83;;;35.33;;
21507;SDS011;10915;54.352;9.074;2023-01-26T03:09:08;94.10;;;34.20;;
21507;SDS011;10915;54.352;9.074;2023-01-26T03:11:34;68.90;;;30.13;;
21507;SDS011;10915;54.352;9.074;2023-01-26T03:14:09;77.00;;;30.87;;
21507;SDS011;10915;54.352;9.074;2023-01-26T03:16:36;66.70;;;29.47;;
21507;SDS011;10915;54.352;9.074;2023-01-26T03:19:03;63.13;;;28.53;;
21507;SDS011;10915;54.352;9.074;2023-01-26T03:21:48;54.83;;;25.57;;
21507;SDS011;10915;54.352;9.074;2023-01-26T03:24:34;61.37;;;26.37;;
21507;SDS011;10915;54.352;9.074;2023-01-26T03:27:23;55.40;;;26.07;;
21507;SDS011;10915;54.352;9.074;2023-01-26T03:29:52;56.60;;;25.77;;
21507;SDS011;10915;54.352;9.074;2023-01-26T03:32:18;56.43;;;24.90;;
21507;SDS011;10915;54.352;9.074;2023-01-26T03:34:44;58.17;;;25.63;;
21507;SDS011;10915;54.352;9.074;2023-01-26T03:37:10;51.37;;;23.30;;
21507;SDS011;10915;54.352;9.074;2023-01-26T03:39:35;59.30;;;24.97;;
21507;SDS011;10915;54.352;9.074;2023-01-26T03:42:19;59.73;;;25.23;;
21507;SDS011;10915;54.352;9.074;2023-01-26T03:45:04;48.40;;;24.00;;
21507;SDS011;10915;54.352;9.074;2023-01-26T03:47:49;51.30;;;23.67;;
21507;SDS011;10915;54.352;9.074;2023-01-26T03:50:33;48.63;;;22.43;;
21507;SDS011;10915;54.352;9.074;2023-01-26T03:53:19;49.20;;;23.13;;
21507;SDS011;10915;54.352;9.074;2023-01-26T03:56:04;45.97;;;21.60;;
21507;SDS011;10915;54.352;9.074;2023-01-26T03:58:52;50.90;;;24.03;;
21507;SDS011;10915;54.352;9.074;2023-01-26T04:01:20;47.90;;;21.57;;
21507;SDS011;10915;54.352;9.074;2023-01-26T04:03:53;47.47;;;22.20;;
21507;SDS011;10915;54.352;9.074;2023-01-26T04:06:41;37.23;;;19.70;;
21507;SDS011;10915;54.352;9.074;2023-01-26T04:09:26;34.70;;;18.77;;
21507;SDS011;10915;54.352;9.074;2023-01-26T04:11:52;38.70;;;18.90;;
21507;SDS011;10915;54.352;9.074;2023-01-26T04:14:18;37.23;;;19.17;;
21507;SDS011;10915;54.352;9.074;2023-01-26T04:17:02;34.53;;;18.53;;
21507;SDS011;10915;54.352;9.074;2023-01-26T04:19:48;41.93;;;21.40;;
21507;SDS011;10915;54.352;9.074;2023-01-26T04:22:36;39.17;;;19.60;;
21507;SDS011;10915;54.352;9.074;2023-01-26T04:25:13;41.37;;;20.33;;
21507;SDS011;10915;54.352;9.074;2023-01-26T04:27:41;40.27;;;20.20;;
21507;SDS011;10915;54.352;9.074;2023-01-26T04:30:08;50.07;;;23.03;;
21507;SDS011;10915;54.352;9.074;2023-01-26T04:32:36;46.07;;;22.77;;
21507;SDS011;10915;54.352;9.074;2023-01-26T04:35:02;50.07;;;22.80;;
21507;SDS011;10915;54.352;9.074;2023-01-26T04:37:29;39.07;;;19.67;;
21507;SDS011;10915;54.352;9.074;2023-01-26T04:39:55;41.27;;;20.70;;
21507;SDS011;10915;54.352;9.074;2023-01-26T04:42:21;44.37;;;21.07;;
21507;SDS011;10915;54.352;9.074;2023-01-26T04:44:50;46.53;;;21.70;;
21507;SDS011;10915;54.352;9.074;2023-01-26T04:47:17;39.67;;;19.93;;
21507;SDS011;10915;54.352;9.074;2023-01-26T04:49:44;40.17;;;19.73;;
21507;SDS011;10915;54.352;9.074;2023-01-26T04:52:09;49.63;;;22.20;;
21507;SDS011;10915;54.352;9.074;2023-01-26T04:54:35;44.07;;;20.80;;
21507;SDS011;10915;54.352;9.074;2023-01-26T04:57:01;53.57;;;23.00;;
21507;SDS011;10915;54.352;9.074;2023-01-26T04:59:26;51.87;;;23.37;;
21507;SDS011;10915;54.352;9.074;2023-01-26T05:01:52;43.63;;;20.50;;
21507;SDS011;10915;54.352;9.074;2023-01-26T05:04:18;35.03;;;18.50;;
21507;SDS011;10915;54.352;9.074;2023-01-26T05:06:44;34.20;;;17.90;;
21507;SDS011;10915;54.352;9.074;2023-01-26T05:09:10;42.60;;;21.27;;
21507;SDS011;10915;54.352;9.074;2023-01-26T05:11:35;45.67;;;22.00;;
21507;SDS011;10915;54.352;9.074;2023-01-26T05:14:01;40.20;;;22.10;;
21507;SDS011;10915;54.352;9.074;2023-01-26T05:16:27;39.17;;;20.50;;
21507;SDS011;10915;54.352;9.074;2023-01-26T05:18:53;49.80;;;24.00;;
21507;SDS011;10915;54.352;9.074;2023-01-26T05:21:19;51.77;;;23.70;;
21507;SDS011;10915;54.352;9.074;2023-01-26T05:23:48;50.50;;;24.70;;
21507;SDS011;10915;54.352;9.074;2023-01-26T05:26:14;50.20;;;23.67;;
21507;SDS011;10915;54.352;9.074;2023-01-26T05:28:40;41.90;;;21.00;;
21507;SDS011;10915;54.352;9.074;2023-01-26T05:31:06;49.77;;;24.93;;
21507;SDS011;10915;54.352;9.074;2023-01-26T05:33:31;48.00;;;23.13;;
21507;SDS011;10915;54.352;9.074;2023-01-26T05:35:57;43.40;;;21.63;;
21507;SDS011;10915;54.352;9.074;2023-01-26T05:38:27;47.43;;;21.73;;
21507;SDS011;10915;54.352;9.074;2023-01-26T05:40:53;41.37;;;21.23;;
21507;SDS011;10915;54.352;9.074;2023-01-26T05:43:19;42.30;;;20.40;;
21507;SDS011;10915;54.352;9.074;2023-01-26T05:45:44;42.10;;;20.27;;
21507;SDS011;10915;54.352;9.074;2023-01-26T05:48:10;42.00;;;19.97;;
21507;SDS011;10915;54.352;9.074;2023-01-26T05:50:36;47.73;;;22.87;;
21507;SDS011;10915;54.352;9.074;2023-01-26T05:53:01;50.23;;;23.50;;
21507;SDS011;10915;54.352;9.074;2023-01-26T05:55:27;47.20;;;22.77;;
21507;SDS011;10915;54.352;9.074;2023-01-26T05:57:53;44.40;;;22.67;;
21507;SDS011;10915;54.352;9.074;2023-01-26T06:00:18;40.73;;;20.77;;
21507;SDS011;10915;54.352;9.074;2023-01-26T06:02:44;41.57;;;21.40;;
21507;SDS011;10915;54.352;9.074;2023-01-26T06:05:10;64.10;;;27.63;;
21507;SDS011;10915;54.352;9.074;2023-01-26T06:07:36;44.40;;;22.87;;
21507;SDS011;10915;54.352;9.074;2023-01-26T06:10:02;41.93;;;21.50;;
21507;SDS011;10915;54.352;9.074;2023-01-26T06:12:28;39.60;;;21.10;;
21507;SDS011;10915;54.352;9.074;2023-01-26T06:14:59;48.43;;;22.70;;
21507;SDS011;10915;54.352;9.074;2023-01-26T06:17:26;41.73;;;20.80;;
21507;SDS011;10915;54.352;9.074;2023-01-26T06:19:51;51.17;;;23.57;;
21507;SDS011;10915;54.352;9.074;2023-01-26T06:22:17;73.80;;;29.03;;
21507;SDS011;10915;54.352;9.074;2023-01-26T06:24:43;48.93;;;22.93;;
21507;SDS011;10915;54.352;9.074;2023-01-26T06:27:14;56.80;;;24.53;;
21507;SDS011;10915;54.352;9.074;2023-01-26T06:29:41;49.13;;;21.90;;
21507;SDS011;10915;54.352;9.074;2023-01-26T06:32:09;46.87;;;22.37;;
21507;SDS011;10915;54.352;9.074;2023-01-26T06:34:38;56.17;;;23.97;;
21507;SDS011;10915;54.352;9.074;2023-01-26T06:37:04;62.43;;;27.73;;
21507;SDS011;10915;54.352;9.074;2023-01-26T06:39:31;62.70;;;26.33;;
21507;SDS011;10915;54.352;9.074;2023-01-26T06:41:57;52.63;;;25.60;;
21507;SDS011;10915;54.352;9.074;2023-01-26T06:44:23;71.30;;;26.07;;
21507;SDS011;10915;54.352;9.074;2023-01-26T06:46:48;71.90;;;28.83;;
21507;SDS011;10915;54.352;9.074;2023-01-26T06:49:14;56.80;;;24.30;;
21507;SDS011;10915;54.352;9.074;2023-01-26T06:54:23;59.73;;;24.53;;
21507;SDS011;10915;54.352;9.074;2023-01-26T06:56:49;57.87;;;25.10;;
21507;SDS011;10915;54.352;9.074;2023-01-26T06:59:15;56.40;;;25.10;;
21507;SDS011;10915;54.352;9.074;2023-01-26T07:01:42;58.33;;;24.00;;
21507;SDS011;10915;54.352;9.074;2023-01-26T07:04:09;59.53;;;25.50;;
21507;SDS011;10915;54.352;9.074;2023-01-26T07:06:35;49.63;;;22.73;;
21507;SDS011;10915;54.352;9.074;2023-01-26T07:09:01;55.20;;;24.53;;
21507;SDS011;10915;54.352;9.074;2023-01-26T07:11:27;57.23;;;25.80;;
21507;SDS011;10915;54.352;9.074;2023-01-26T07:13:54;58.53;;;25.27;;
21507;SDS011;10915;54.352;9.074;2023-01-26T07:16:20;59.43;;;25.50;;
21507;SDS011;10915;54.352;9.074;2023-01-26T07:18:46;54.23;;;23.23;;
21507;SDS011;10915;54.352;9.074;2023-01-26T07:21:13;73.43;;;27.50;;
21507;SDS011;10915;54.352;9.074;2023-01-26T07:23:42;56.43;;;25.10;;
21507;SDS011;10915;54.352;9.074;2023-01-26T07:26:08;55.90;;;24.47;;
21507;SDS011;10915;54.352;9.074;2023-01-26T07:28:39;64.33;;;26.57;;
21507;SDS011;10915;54.352;9.074;2023-01-26T07:31:06;67.57;;;26.47;;
21507;SDS011;10915;54.352;9.074;2023-01-26T07:33:37;60.20;;;26.53;;
21507;SDS011;10915;54.352;9.074;2023-01-26T07:36:03;57.63;;;24.97;;
21507;SDS011;10915;54.352;9.074;2023-01-26T07:38:29;77.17;;;28.37;;
21507;SDS011;10915;54.352;9.074;2023-01-26T07:40:55;76.17;;;27.50;;
21507;SDS011;10915;54.352;9.074;2023-01-26T07:43:21;57.67;;;25.43;;
21507;SDS011;10915;54.352;9.074;2023-01-26T07:45:51;64.57;;;26.13;;
21507;SDS011;10915;54.352;9.074;2023-01-26T07:48:21;112.90;;;32.13;;
21507;SDS011;10915;54.352;9.074;2023-01-26T07:50:48;62.13;;;23.53;;
21507;SDS011;10915;54.352;9.074;2023-01-26T07:53:14;110.73;;;29.47;;
21507;SDS011;10915;54.352;9.074;2023-01-26T07:55:43;75.60;;;24.93;;
21507;SDS011;10915;54.352;9.074;2023-01-26T07:58:10;57.00;;;23.13;;
21507;SDS011;10915;54.352;9.074;2023-01-26T08:00:36;58.63;;;22.80;;
21507;SDS011;10915;54.352;9.074;2023-01-26T08:03:02;65.13;;;23.00;;
21507;SDS011;10915;54.352;9.074;2023-01-26T08:05:28;91.70;;;25.10;;
21507;SDS011;10915;54.352;9.074;2023-01-26T08:07:58;70.67;;;22.70;;
21507;SDS011;10915;54.352;9.074;2023-01-26T08:10:25;59.03;;;21.80;;
21507;SDS011;10915;54.352;9.074;2023-01-26T08:12:52;58.70;;;21.67;;
21507;SDS011;10915;54.352;9.074;2023-01-26T08:15:17;101.90;;;25.70;;
21507;SDS011;10915;54.352;9.074;2023-01-26T08:17:43;53.00;;;19.60;;
21507;SDS011;10915;54.352;9.074;2023-01-26T08:20:09;47.63;;;19.80;;
21507;SDS011;10915;54.352;9.074;2023-01-26T08:22:36;72.70;;;22.00;;
21507;SDS011;10915;54.352;9.074;2023-01-26T08:25:01;42.77;;;17.17;;
21507;SDS011;10915;54.352;9.074;2023-01-26T08:27:28;51.77;;;20.07;;
21507;SDS011;10915;54.352;9.074;2023-01-26T08:29:53;38.67;;;17.10;;
21507;SDS011;10915;54.352;9.074;2023-01-26T08:32:20;41.93;;;17.23;;
21507;SDS011;10915;54.352;9.074;2023-01-26T08:34:46;39.23;;;16.50;;
21507;SDS011;10915;54.352;9.074;2023-01-26T08:37:11;43.47;;;17.73;;
21507;SDS011;10915;54.352;9.074;2023-01-26T08:39:37;47.00;;;17.30;;
21507;SDS011;10915;54.352;9.074;2023-01-26T08:42:03;27.07;;;13.83;;
21507;SDS011;10915;54.352;9.074;2023-01-26T08:44:28;35.60;;;14.80;;
21507;SDS011;10915;54.352;9.074;2023-01-26T08:46:54;25.43;;;12.63;;
21507;SDS011;10915;54.352;9.074;2023-01-26T08:49:20;24.67;;;11.70;;
21507;SDS011;10915;54.352;9.074;2023-01-26T08:51:45;47.00;;;13.70;;
21507;SDS011;10915;54.352;9.074;2023-01-26T08:54:11;28.93;;;12.33;;
21507;SDS011;10915;54.352;9.074;2023-01-26T08:56:37;22.37;;;10.80;;
21507;SDS011;10915;54.352;9.074;2023-01-26T08:59:02;22.13;;;10.57;;
21507;SDS011;10915;54.352;9.074;2023-01-26T09:01:28;21.83;;;9.80;;
21507;SDS011;10915;54.352;9.074;2023-01-26T09:03:54;21.53;;;10.87;;
21507;SDS011;10915;54.352;9.074;2023-01-26T09:06:20;24.43;;;10.43;;
21507;SDS011;10915;54.352;9.074;2023-01-26T09:08:46;19.67;;;9.07;;
21507;SDS011;10915;54.352;9.074;2023-01-26T09:11:12;24.20;;;9.93;;
21507;SDS011;10915;54.352;9.074;2023-01-26T09:13:39;22.40;;;9.47;;
21507;SDS011;10915;54.352;9.074;2023-01-26T09:16:05;15.63;;;8.03;;
21507;SDS011;10915;54.352;9.074;2023-01-26T09:18:32;18.67;;;8.37;;
21507;SDS011;10915;54.352;9.074;2023-01-26T09:21:02;21.70;;;8.77;;
21507;SDS011;10915;54.352;9.074;2023-01-26T09:23:32;17.80;;;7.77;;
21507;SDS011;10915;54.352;9.074;2023-01-26T09:25:59;17.20;;;7.87;;
21507;SDS011;10915;54.352;9.074;2023-01-26T09:28:26;22.60;;;9.50;;
21507;SDS011;10915;54.352;9.074;2023-01-26T09:30:52;22.33;;;7.10;;
21507;SDS011;10915;54.352;9.074;2023-01-26T09:33:18;28.07;;;9.20;;
21507;SDS011;10915;54.352;9.074;2023-01-26T09:35:46;25.43;;;9.33;;
21507;SDS011;10915;54.352;9.074;2023-01-26T09:38:13;26.77;;;9.40;;
21507;SDS011;10915;54.352;9.074;2023-01-26T09:43:22;26.03;;;8.30;;
21507;SDS011;10915;54.352;9.074;2023-01-26T09:54:11;25.93;;;7.40;;
21507;SDS011;10915;54.352;9.074;2023-01-26T09:56:50;26.90;;;6.77;;
21507;SDS011;10915;54.352;9.074;2023-01-26T09:59:28;28.37;;;7.00;;
21507;SDS011;10915;54.352;9.074;2023-01-26T10:04:35;29.63;;;6.70;;
21507;SDS011;10915;54.352;9.074;2023-01-26T10:07:05;28.37;;;6.43;;
21507;SDS011;10915;54.352;9.074;2023-01-26T10:09:35;37.00;;;7.10;;
21507;SDS011;10915;54.352;9.074;2023-01-26T10:12:06;39.63;;;6.63;;
21507;SDS011;10915;54.352;9.074;2023-01-26T10:14:40;38.17;;;7.53;;
21507;SDS011;10915;54.352;9.074;2023-01-26T10:20:03;38.10;;;7.03;;
21507;SDS011;10915;54.352;9.074;2023-01-26T10:25:19;40.57;;;7.80;;
21507;SDS011;10915;54.352;9.074;2023-01-26T10:27:51;30.83;;;6.57;;
21507;SDS011;10915;54.352;9.074;2023-01-26T10:30:17;37.13;;;7.30;;
21507;SDS011;10915;54.352;9.074;2023-01-26T10:32:45;30.50;;;6.00;;
21507;SDS011;10915;54.352;9.074;2023-01-26T10:35:14;28.10;;;5.13;;
21507;SDS011;10915;54.352;9.074;2023-01-26T10:37:45;27.67;;;5.83;;
21507;SDS011;10915;54.352;9.074;2023-01-26T10:40:12;28.80;;;5.57;;
21507;SDS011;10915;54.352;9.074;2023-01-26T10:42:38;34.97;;;5.93;;
21507;SDS011;10915;54.352;9.074;2023-01-26T10:45:50;30.20;;;5.20;;
21507;SDS011;10915;54.352;9.074;2023-01-26T10:50:31;24.37;;;5.17;;
21507;SDS011;10915;54.352;9.074;2023-01-26T10:52:59;30.60;;;5.27;;
21507;SDS011;10915;54.352;9.074;2023-01-26T10:55:29;24.73;;;4.87;;
21507;SDS011;10915;54.352;9.074;2023-01-26T10:57:57;35.27;;;5.40;;
21507;SDS011;10915;54.352;9.074;2023-01-26T11:00:30;22.37;;;4.00;;
21507;SDS011;10915;54.352;9.074;2023-01-26T11:05:38;23.47;;;3.43;;
21507;SDS011;10915;54.352;9.074;2023-01-26T11:08:08;18.33;;;3.93;;
21507;SDS011;10915;54.352;9.074;2023-01-26T11:11:00;22.53;;;4.40;;
21507;SDS011;10915;54.352;9.074;2023-01-26T11:13:28;22.73;;;4.13;;
21507;SDS011;10915;54.352;9.074;2023-01-26T11:21:21;23.20;;;3.70;;
21507;SDS011;10915;54.352;9.074;2023-01-26T11:24:15;16.90;;;3.30;;
21507;SDS011;10915;54.352;9.074;2023-01-26T11:37:47;23.70;;;4.03;;
21507;SDS011;10915;54.352;9.074;2023-01-26T12:00:03;18.10;;;3.60;;
21507;SDS011;10915;54.352;9.074;2023-01-26T12:02:38;12.67;;;2.80;;
21507;SDS011;10915;54.352;9.074;2023-01-26T12:10:40;17.97;;;3.17;;
21507;SDS011;10915;54.352;9.074;2023-01-26T12:13:19;16.60;;;3.67;;
21507;SDS011;10915;54.352;9.074;2023-01-26T12:15:58;15.10;;;3.47;;
21507;SDS011;10915;54.352;9.074;2023-01-26T12:18:52;13.50;;;2.93;;
21507;SDS011;10915;54.352;9.074;2023-01-26T12:21:23;19.90;;;3.40;;
21507;SDS011;10915;54.352;9.074;2023-01-26T12:26:26;18.87;;;3.23;;
21507;SDS011;10915;54.352;9.074;2023-01-26T12:34:17;17.80;;;3.33;;
21507;SDS011;10915;54.352;9.074;2023-01-26T12:37:03;12.17;;;3.00;;
21507;SDS011;10915;54.352;9.074;2023-01-26T12:39:43;18.57;;;3.20;;
21507;SDS011;10915;54.352;9.074;2023-01-26T12:42:25;13.80;;;2.90;;
21507;SDS011;10915;54.352;9.074;2023-01-26T12:45:13;15.67;;;3.30;;
21507;SDS011;10915;54.352;9.074;2023-01-26T12:53:06;14.43;;;2.90;;
21507;SDS011;10915;54.352;9.074;2023-01-26T12:56:12;12.63;;;2.97;;
21507;SDS011;10915;54.352;9.074;2023-01-26T12:58:46;17.57;;;3.97;;
21507;SDS011;10915;54.352;9.074;2023-01-26T13:01:17;11.53;;;2.90;;
21507;SDS011;10915;54.352;9.074;2023-01-26T13:03:57;17.40;;;3.90;;
21507;SDS011;10915;54.352;9.074;2023-01-26T13:06:30;16.77;;;2.47;;
21507;SDS011;10915;54.352;9.074;2023-01-26T13:19:50;18.80;;;3.60;;
21507;SDS011;10915;54.352;9.074;2023-01-26T13:27:33;12.97;;;2.90;;
21507;SDS011;10915;54.352;9.074;2023-01-26T13:33:01;16.73;;;3.33;;
21507;SDS011;10915;54.352;9.074;2023-01-26T13:35:39;12.50;;;2.60;;
21507;SDS011;10915;54.352;9.074;2023-01-26T13:41:18;16.40;;;3.40;;
21507;SDS011;10915;54.352;9.074;2023-01-26T13:43:48;9.90;;;2.97;;
21507;SDS011;10915;54.352;9.074;2023-01-26T13:46:25;19.37;;;3.50;;
21507;SDS011;10915;54.352;9.074;2023-01-26T13:49:00;15.77;;;3.00;;
21507;SDS011;10915;54.352;9.074;2023-01-26T13:51:30;11.37;;;3.30;;
21507;SDS011;10915;54.352;9.074;2023-01-26T13:54:01;21.90;;;3.63;;
21507;SDS011;10915;54.352;9.074;2023-01-26T13:56:35;15.37;;;3.00;;
21507;SDS011;10915;54.352;9.074;2023-01-26T14:01:44;11.80;;;2.60;;
21507;SDS011;10915;54.352;9.074;2023-01-26T14:04:13;16.80;;;3.93;;
21507;SDS011;10915;54.352;9.074;2023-01-26T14:09:29;16.77;;;3.00;;
21507;SDS011;10915;54.352;9.074;2023-01-26T14:12:00;20.83;;;3.53;;
21507;SDS011;10915;54.352;9.074;2023-01-26T14:14:28;18.63;;;3.67;;
21507;SDS011;10915;54.352;9.074;2023-01-26T14:16:57;19.03;;;3.60;;
21507;SDS011;10915;54.352;9.074;2023-01-26T14:19:24;14.27;;;3.53;;
21507;SDS011;10915;54.352;9.074;2023-01-26T14:21:55;18.73;;;3.90;;
21507;SDS011;10915;54.352;9.074;2023-01-26T14:24:26;18.23;;;3.80;;
21507;SDS011;10915;54.352;9.074;2023-01-26T14:26:57;16.13;;;2.83;;
21507;SDS011;10915;54.352;9.074;2023-01-26T14:29:24;14.97;;;3.40;;
21507;SDS011;10915;54.352;9.074;2023-01-26T14:31:52;17.23;;;3.40;;
21507;SDS011;10915;54.352;9.074;2023-01-26T14:34:24;21.03;;;3.60;;
21507;SDS011;10915;54.352;9.074;2023-01-26T14:37:11;17.63;;;3.80;;
21507;SDS011;10915;54.352;9.074;2023-01-26T14:39:38;19.53;;;3.60;;
21507;SDS011;10915;54.352;9.074;2023-01-26T14:42:04;19.37;;;3.83;;
21507;SDS011;10915;54.352;9.074;2023-01-26T14:44:30;15.33;;;3.53;;
21507;SDS011;10915;54.352;9.074;2023-01-26T14:46:59;17.07;;;4.17;;
21507;SDS011;10915;54.352;9.074;2023-01-26T14:49:37;14.70;;;3.80;;
21507;SDS011;10915;54.352;9.074;2023-01-26T14:52:29;21.37;;;4.73;;
21507;SDS011;10915;54.352;9.074;2023-01-26T14:55:24;12.90;;;3.33;;
21507;SDS011;10915;54.352;9.074;2023-01-26T14:57:53;21.30;;;5.23;;
21507;SDS011;10915;54.352;9.074;2023-01-26T15:00:26;14.37;;;4.47;;
21507;SDS011;10915;54.352;9.074;2023-01-26T15:03:00;15.97;;;4.03;;
21507;SDS011;10915;54.352;9.074;2023-01-26T15:05:32;14.50;;;4.17;;
21507;SDS011;10915;54.352;9.074;2023-01-26T15:08:21;18.10;;;4.43;;
21507;SDS011;10915;54.352;9.074;2023-01-26T15:11:00;17.80;;;4.30;;
21507;SDS011;10915;54.352;9.074;2023-01-26T15:13:46;22.30;;;4.27;;
21507;SDS011;10915;54.352;9.074;2023-01-26T15:16:17;15.57;;;3.97;;
21507;SDS011;10915;54.352;9.074;2023-01-26T15:18:44;14.63;;;4.13;;
21507;SDS011;10915;54.352;9.074;2023-01-26T15:21:21;16.43;;;4.77;;
21507;SDS011;10915;54.352;9.074;2023-01-26T15:23:51;16.37;;;4.57;;
21507;SDS011;10915;54.352;9.074;2023-01-26T15:26:29;13.87;;;3.80;;
21507;SDS011;10915;54.352;9.074;2023-01-26T15:28:57;22.70;;;5.67;;
21507;SDS011;10915;54.352;9.074;2023-01-26T15:31:28;18.63;;;4.90;;
21507;SDS011;10915;54.352;9.074;2023-01-26T15:33:56;16.40;;;4.87;;
21507;SDS011;10915;54.352;9.074;2023-01-26T15:39:16;13.87;;;5.33;;
21507;SDS011;10915;54.352;9.074;2023-01-26T15:41:44;15.73;;;4.97;;
21507;SDS011;10915;54.352;9.074;2023-01-26T15:44:25;16.70;;;4.83;;
21507;SDS011;10915;54.352;9.074;2023-01-26T15:46:52;14.23;;;4.80;;
21507;SDS011;10915;54.352;9.074;2023-01-26T15:49:20;13.97;;;5.00;;
21507;SDS011;10915;54.352;9.074;2023-01-26T15:51:47;16.53;;;5.03;;
21507;SDS011;10915;54.352;9.074;2023-01-26T15:54:13;15.73;;;5.03;;
21507;SDS011;10915;54.352;9.074;2023-01-26T15:56:38;16.40;;;5.40;;
21507;SDS011;10915;54.352;9.074;2023-01-26T15:59:04;16.40;;;6.00;;
21507;SDS011;10915;54.352;9.074;2023-01-26T16:01:30;12.67;;;5.07;;
21507;SDS011;10915;54.352;9.074;2023-01-26T16:03:55;14.27;;;5.93;;
21507;SDS011;10915;54.352;9.074;2023-01-26T16:06:22;15.73;;;6.43;;
21507;SDS011;10915;54.352;9.074;2023-01-26T16:08:50;17.07;;;6.00;;
21507;SDS011;10915;54.352;9.074;2023-01-26T16:11:16;16.07;;;6.00;;
21507;SDS011;10915;54.352;9.074;2023-01-26T16:13:42;20.63;;;7.07;;
21507;SDS011;10915;54.352;9.074;2023-01-26T16:16:09;17.13;;;7.03;;
21507;SDS011;10915;54.352;9.074;2023-01-26T16:18:36;21.33;;;8.73;;
21507;SDS011;10915;54.352;9.074;2023-01-26T16:21:04;21.23;;;9.27;;
21507;SDS011;10915;54.352;9.074;2023-01-26T16:23:42;21.90;;;9.23;;
21507;SDS011;10915;54.352;9.074;2023-01-26T16:26:09;17.43;;;9.20;;
21507;SDS011;10915;54.352;9.074;2023-01-26T16:28:35;21.00;;;8.60;;
21507;SDS011;10915;54.352;9.074;2023-01-26T16:31:01;25.00;;;9.10;;
21507;SDS011;10915;54.352;9.074;2023-01-26T16:33:29;23.17;;;9.13;;
21507;SDS011;10915;54.352;9.074;2023-01-26T16:35:54;19.70;;;8.40;;
21507;SDS011;10915;54.352;9.074;2023-01-26T16:38:20;20.70;;;8.97;;
21507;SDS011;10915;54.352;9.074;2023-01-26T16:40:46;16.30;;;8.03;;
21507;SDS011;10915;54.352;9.074;2023-01-26T16:43:17;16.03;;;8.00;;
21507;SDS011;10915;54.352;9.074;2023-01-26T16:45:45;18.13;;;8.80;;